Time;durP1;ratioP1;P1;durP2;ratioP2;P2;SDS_P1;SDS_P2;PMS_P1;PMS_P2;Temp;Humidity;BMP_temperature;BMP_pressure;BME280_temperature;BME280_humidity;BME280_pressure;Samples;Min_cycle;Max_cycle;Signal;HPM_P1;HPM_P2
2022/06/21 00:00:41;;;;;;;13.55;5.05;;;;;;;;;;5013206;28;20703;-54
2022/06/21 00:03:16;;;;;;;13.65;4.75;;;;;;;;;;5012017;28;20708;-58
2022/06/21 00:05:43;;;;;;;13.63;4.72;;;;;;;;;;4993619;28;20245;-56
2022/06/21 00:08:21;;;;;;;12.13;4.50;;;;;;;;;;5002422;28;20275;-54
2022/06/21 00:10:47;;;;;;;12.73;4.70;;;;;;;;;;5012520;28;20230;-54
2022/06/21 00:13:15;;;;;;;10.27;4.28;;;;;;;;;;5012769;28;20197;-58
2022/06/21 00:15:42;;;;;;;12.75;4.75;;;;;;;;;;5000735;28;20192;-57
2022/06/21 00:18:16;;;;;;;13.52;4.78;;;;;;;;;;5032644;28;20179;-58
2022/06/21 00:20:42;;;;;;;11.77;4.72;;;;;;;;;;5027143;28;20195;-58
2022/06/21 00:23:18;;;;;;;13.50;4.95;;;;;;;;;;5005595;28;20262;-56
2022/06/21 00:25:46;;;;;;;10.88;4.80;;;;;;;;;;5019501;28;20215;-57
2022/06/21 00:28:13;;;;;;;10.77;4.63;;;;;;;;;;4995613;28;20172;-58
2022/06/21 00:30:39;;;;;;;12.43;5.32;;;;;;;;;;5015727;28;20658;-57
2022/06/21 00:33:08;;;;;;;14.98;5.60;;;;;;;;;;5014783;28;20615;-57
2022/06/21 00:35:34;;;;;;;10.80;4.88;;;;;;;;;;5021422;28;20632;-56
2022/06/21 00:38:00;;;;;;;12.07;4.47;;;;;;;;;;5013910;28;20200;-62
2022/06/21 00:40:28;;;;;;;8.50;4.32;;;;;;;;;;5017219;28;20199;-55
2022/06/21 00:42:57;;;;;;;13.63;4.57;;;;;;;;;;5017080;28;20185;-57
2022/06/21 00:45:23;;;;;;;11.32;4.28;;;;;;;;;;4982336;28;20189;-57
2022/06/21 00:47:52;;;;;;;8.63;4.30;;;;;;;;;;5016598;28;20169;-57
2022/06/21 00:50:20;;;;;;;12.25;4.45;;;;;;;;;;5025681;28;20176;-55
2022/06/21 00:53:07;;;;;;;15.15;4.80;;;;;;;;;;5035941;28;20285;-57
2022/06/21 00:55:42;;;;;;;11.50;4.53;;;;;;;;;;5004885;28;20212;-56
2022/06/21 00:58:13;;;;;;;9.65;4.35;;;;;;;;;;4998883;28;20652;-57
2022/06/21 01:00:50;;;;;;;10.60;4.55;;;;;;;;;;5022894;28;20180;-56
2022/06/21 01:03:20;;;;;;;13.60;4.95;;;;;;;;;;5036513;28;20210;-57
2022/06/21 01:05:47;;;;;;;10.63;4.72;;;;;;;;;;5019894;28;20216;-57
2022/06/21 01:08:16;;;;;;;13.27;4.63;;;;;;;;;;5016347;28;20227;-56
2022/06/21 01:10:42;;;;;;;9.70;4.28;;;;;;;;;;5028070;28;20185;-57
2022/06/21 01:13:14;;;;;;;9.27;4.82;;;;;;;;;;5015876;28;20258;-57
2022/06/21 01:15:43;;;;;;;12.20;4.60;;;;;;;;;;4998829;28;20625;-56
2022/06/21 01:18:10;;;;;;;10.20;4.70;;;;;;;;;;4982659;28;20188;-56
2022/06/21 01:20:39;;;;;;;12.27;4.35;;;;;;;;;;5016143;28;20246;-57
2022/06/21 01:23:08;;;;;;;11.77;4.80;;;;;;;;;;5015009;28;20200;-57
2022/06/21 01:25:53;;;;;;;9.98;4.43;;;;;;;;;;4997726;28;20217;-56
2022/06/21 01:28:19;;;;;;;13.55;4.88;;;;;;;;;;4998530;28;20199;-57
2022/06/21 01:30:48;;;;;;;13.90;4.78;;;;;;;;;;5034500;28;20211;-57
2022/06/21 01:33:16;;;;;;;12.30;4.80;;;;;;;;;;4997185;28;20231;-53
2022/06/21 01:35:48;;;;;;;9.52;4.93;;;;;;;;;;5015835;28;20258;-61
2022/06/21 01:38:16;;;;;;;11.63;4.97;;;;;;;;;;5016070;28;20259;-58
2022/06/21 01:40:45;;;;;;;13.77;5.47;;;;;;;;;;5014551;28;20176;-60
2022/06/21 01:43:14;;;;;;;16.77;5.18;;;;;;;;;;5017422;28;20181;-59
2022/06/21 01:45:43;;;;;;;11.95;5.07;;;;;;;;;;5030608;28;20216;-56
2022/06/21 01:48:19;;;;;;;15.63;5.53;;;;;;;;;;4998040;28;20267;-58
2022/06/21 01:50:47;;;;;;;15.85;5.53;;;;;;;;;;5019680;28;20195;-55
2022/06/21 01:53:14;;;;;;;12.43;5.00;;;;;;;;;;5013728;28;20240;-57
2022/06/21 01:55:51;;;;;;;11.02;5.35;;;;;;;;;;4997203;28;20181;-56
2022/06/21 01:58:19;;;;;;;11.93;5.75;;;;;;;;;;5015260;28;20196;-55
2022/06/21 02:00:47;;;;;;;15.38;5.13;;;;;;;;;;5014489;28;20180;-56
2022/06/21 02:03:15;;;;;;;15.50;5.78;;;;;;;;;;4997741;28;20207;-57
2022/06/21 02:05:46;;;;;;;12.70;5.25;;;;;;;;;;5014215;28;20177;-56
2022/06/21 02:08:16;;;;;;;10.85;5.15;;;;;;;;;;5013225;28;20271;-56
2022/06/21 02:10:45;;;;;;;12.50;5.30;;;;;;;;;;5014354;28;20246;-59
2022/06/21 02:13:11;;;;;;;13.30;5.00;;;;;;;;;;5015175;28;20291;-57
2022/06/21 02:15:40;;;;;;;16.10;5.55;;;;;;;;;;5015054;28;20168;-57
2022/06/21 02:18:09;;;;;;;13.85;5.43;;;;;;;;;;5015023;28;20264;-56
2022/06/21 02:20:42;;;;;;;11.50;5.50;;;;;;;;;;4996358;28;20189;-57
2022/06/21 02:23:11;;;;;;;16.83;6.03;;;;;;;;;;5015390;28;20621;-57
2022/06/21 02:25:39;;;;;;;13.65;5.93;;;;;;;;;;5014504;28;20169;-57
2022/06/21 02:28:07;;;;;;;9.20;5.15;;;;;;;;;;5015042;28;20185;-56
2022/06/21 02:30:36;;;;;;;19.77;5.47;;;;;;;;;;5013608;28;20177;-57
2022/06/21 02:33:03;;;;;;;12.68;5.22;;;;;;;;;;4996976;28;20231;-58
2022/06/21 02:35:38;;;;;;;11.20;5.50;;;;;;;;;;5014621;28;20641;-58
2022/06/21 02:38:06;;;;;;;14.32;5.70;;;;;;;;;;5023136;28;20643;-58
2022/06/21 02:40:35;;;;;;;14.52;5.80;;;;;;;;;;5026034;28;20335;-57
2022/06/21 02:43:07;;;;;;;11.75;5.50;;;;;;;;;;5014337;28;20235;-57
2022/06/21 02:45:36;;;;;;;14.35;5.47;;;;;;;;;;5015007;28;20180;-58
2022/06/21 02:48:05;;;;;;;14.02;5.47;;;;;;;;;;5014335;28;20485;-58
2022/06/21 02:50:36;;;;;;;10.85;5.63;;;;;;;;;;5013771;28;20268;-57
2022/06/21 02:53:05;;;;;;;10.75;5.35;;;;;;;;;;5014060;28;20620;-54
2022/06/21 02:55:34;;;;;;;11.43;5.22;;;;;;;;;;4996134;28;20552;-54
2022/06/21 02:58:13;;;;;;;13.82;5.85;;;;;;;;;;5014269;28;20239;-53
2022/06/21 03:00:42;;;;;;;11.18;5.70;;;;;;;;;;4995393;28;20230;-57
2022/06/21 03:03:15;;;;;;;15.23;5.40;;;;;;;;;;5014139;28;20543;-56
2022/06/21 03:05:41;;;;;;;10.73;5.22;;;;;;;;;;5014171;28;20165;-58
2022/06/21 03:08:08;;;;;;;13.30;5.88;;;;;;;;;;5011585;28;20250;-55
2022/06/21 03:10:42;;;;;;;15.13;6.10;;;;;;;;;;4996120;28;20656;-57
2022/06/21 03:13:10;;;;;;;12.43;5.63;;;;;;;;;;5014263;28;20196;-57
2022/06/21 03:15:37;;;;;;;15.10;6.18;;;;;;;;;;5013910;28;20615;-57
2022/06/21 03:18:08;;;;;;;16.77;5.80;;;;;;;;;;5017896;28;20196;-56
2022/06/21 03:20:35;;;;;;;12.60;5.70;;;;;;;;;;5013150;28;20301;-55
2022/06/21 03:23:02;;;;;;;13.57;5.47;;;;;;;;;;5013693;28;20181;-57
2022/06/21 03:25:32;;;;;;;13.82;6.05;;;;;;;;;;5013610;28;20235;-57
2022/06/21 03:28:00;;;;;;;10.65;5.65;;;;;;;;;;5013262;28;20181;-55
2022/06/21 03:30:34;;;;;;;11.13;6.10;;;;;;;;;;5011794;28;20700;-54
2022/06/21 03:33:01;;;;;;;13.25;5.88;;;;;;;;;;5013886;28;20219;-55
2022/06/21 03:35:30;;;;;;;12.25;6.15;;;;;;;;;;5017478;28;20378;-56
2022/06/21 03:37:56;;;;;;;14.50;6.75;;;;;;;;;;4995238;28;20180;-55
2022/06/21 03:43:14;;;;;;;12.15;5.55;;;;;;;;;;5013517;28;20583;-56
2022/06/21 03:45:43;;;;;;;16.48;6.25;;;;;;;;;;5013727;28;20192;-56
2022/06/21 03:48:14;;;;;;;12.25;6.35;;;;;;;;;;5028589;28;20169;-55
2022/06/21 03:50:54;;;;;;;10.98;5.90;;;;;;;;;;5013343;28;20177;-57
2022/06/21 03:53:29;;;;;;;16.58;6.80;;;;;;;;;;5013261;28;20240;-56
2022/06/21 03:56:02;;;;;;;13.60;6.88;;;;;;;;;;5016190;28;20242;-55
2022/06/21 03:58:41;;;;;;;14.52;7.32;;;;;;;;;;5028723;28;20263;-55
2022/06/21 04:01:14;;;;;;;10.52;7.05;;;;;;;;;;4993808;28;20250;-57
2022/06/21 04:03:47;;;;;;;13.95;7.70;;;;;;;;;;4992841;28;20610;-57
2022/06/21 04:06:32;;;;;;;13.70;8.10;;;;;;;;;;4993991;28;20189;-57
2022/06/21 04:09:14;;;;;;;14.48;8.00;;;;;;;;;;5009703;28;20207;-55
2022/06/21 04:11:50;;;;;;;17.65;8.27;;;;;;;;;;5012665;28;20196;-56
2022/06/21 04:14:24;;;;;;;22.25;8.65;;;;;;;;;;5007077;28;20551;-57
2022/06/21 04:16:50;;;;;;;19.30;8.85;;;;;;;;;;4992913;28;20189;-58
2022/06/21 04:19:31;;;;;;;16.48;8.52;;;;;;;;;;5012543;28;20180;-57
2022/06/21 04:22:04;;;;;;;20.40;8.50;;;;;;;;;;5013349;28;20191;-57
2022/06/21 04:24:39;;;;;;;21.15;9.38;;;;;;;;;;5012326;28;20199;-55
2022/06/21 04:27:11;;;;;;;21.63;9.43;;;;;;;;;;5024910;28;20636;-56
2022/06/21 04:29:42;;;;;;;14.30;9.43;;;;;;;;;;5012161;28;20184;-57
2022/06/21 04:32:27;;;;;;;19.15;9.63;;;;;;;;;;5013248;28;20196;-57
2022/06/21 04:34:58;;;;;;;16.33;10.15;;;;;;;;;;5013029;28;20230;-57
2022/06/21 04:37:45;;;;;;;19.15;9.57;;;;;;;;;;5011124;28;20185;-56
2022/06/21 04:40:30;;;;;;;20.23;9.98;;;;;;;;;;5012158;28;20191;-59
2022/06/21 04:42:56;;;;;;;15.65;9.98;;;;;;;;;;5012707;28;20226;-56
2022/06/21 04:45:28;;;;;;;24.02;9.95;;;;;;;;;;5013385;28;20264;-55
2022/06/21 04:48:13;;;;;;;23.77;10.68;;;;;;;;;;4978492;28;20189;-55
2022/06/21 04:50:41;;;;;;;16.50;10.07;;;;;;;;;;5012786;28;20234;-56
2022/06/21 04:53:19;;;;;;;18.30;10.65;;;;;;;;;;5012180;28;20319;-57
2022/06/21 04:55:49;;;;;;;18.35;10.90;;;;;;;;;;4994676;28;20625;-59
2022/06/21 04:58:15;;;;;;;19.77;11.20;;;;;;;;;;4993766;28;20191;-59
2022/06/21 05:00:41;;;;;;;24.00;11.77;;;;;;;;;;5012612;28;20303;-56
2022/06/21 05:03:23;;;;;;;18.33;10.70;;;;;;;;;;5014926;28;20187;-59
2022/06/21 05:05:49;;;;;;;23.15;12.07;;;;;;;;;;5032347;28;20168;-57
2022/06/21 05:08:17;;;;;;;24.38;11.82;;;;;;;;;;5015163;28;20303;-59
2022/06/21 05:10:45;;;;;;;26.63;11.60;;;;;;;;;;5012277;28;20212;-62
2022/06/21 05:13:26;;;;;;;19.67;11.85;;;;;;;;;;4995008;28;20200;-56
2022/06/21 05:15:54;;;;;;;24.35;11.65;;;;;;;;;;5012349;28;20231;-54
2022/06/21 05:18:23;;;;;;;20.58;11.73;;;;;;;;;;4976257;28;20193;-56
2022/06/21 05:20:55;;;;;;;22.52;11.85;;;;;;;;;;4992768;28;20625;-59
2022/06/21 05:23:23;;;;;;;23.98;10.55;;;;;;;;;;5024903;28;20198;-57
2022/06/21 05:25:50;;;;;;;19.83;10.90;;;;;;;;;;5035079;28;20218;-57
2022/06/21 05:28:22;;;;;;;22.80;10.85;;;;;;;;;;5016891;28;20688;-57
2022/06/21 05:30:53;;;;;;;26.50;10.32;;;;;;;;;;5015580;28;20540;-56
2022/06/21 05:33:35;;;;;;;20.88;9.98;;;;;;;;;;4981882;28;20209;-55
2022/06/21 05:36:08;;;;;;;25.73;9.50;;;;;;;;;;5013980;28;20200;-54
2022/06/21 05:38:36;;;;;;;21.08;8.95;;;;;;;;;;5035122;28;20773;-55
2022/06/21 05:41:02;;;;;;;19.98;9.20;;;;;;;;;;5011531;28;20168;-55
2022/06/21 05:43:37;;;;;;;23.73;10.85;;;;;;;;;;5015273;28;20346;-56
2022/06/21 05:46:06;;;;;;;27.42;12.20;;;;;;;;;;4996404;28;20226;-57
2022/06/21 05:48:33;;;;;;;20.10;11.27;;;;;;;;;;4997930;28;20195;-56
2022/06/21 05:51:01;;;;;;;21.65;10.55;;;;;;;;;;5001065;28;20271;-57
2022/06/21 05:53:27;;;;;;;20.02;8.93;;;;;;;;;;5015086;28;20224;-57
2022/06/21 05:55:54;;;;;;;21.83;8.40;;;;;;;;;;5014960;28;20226;-57
2022/06/21 05:58:28;;;;;;;21.48;8.25;;;;;;;;;;4995896;28;20180;-55
2022/06/21 06:01:01;;;;;;;21.77;8.18;;;;;;;;;;5014357;28;20191;-57
2022/06/21 06:03:33;;;;;;;13.15;7.30;;;;;;;;;;5015227;28;20200;-57
2022/06/21 06:06:04;;;;;;;17.50;7.85;;;;;;;;;;5015013;28;20231;-57
2022/06/21 06:08:33;;;;;;;17.80;7.55;;;;;;;;;;5027690;28;20188;-57
2022/06/21 06:11:01;;;;;;;14.30;7.50;;;;;;;;;;5007238;28;20240;-55
2022/06/21 06:13:35;;;;;;;15.80;7.43;;;;;;;;;;5008539;28;20204;-56
2022/06/21 06:16:06;;;;;;;20.02;6.90;;;;;;;;;;5025619;28;20226;-57
2022/06/21 06:18:46;;;;;;;19.10;7.13;;;;;;;;;;5022847;28;20180;-57
2022/06/21 06:21:16;;;;;;;15.02;6.13;;;;;;;;;;4996642;28;20488;-55
2022/06/21 06:23:50;;;;;;;22.35;11.07;;;;;;;;;;4997338;28;20177;-56
2022/06/21 06:26:17;;;;;;;17.77;6.00;;;;;;;;;;4996966;28;20195;-59
2022/06/21 06:28:50;;;;;;;15.23;6.13;;;;;;;;;;5014770;28;20181;-58
2022/06/21 06:31:16;;;;;;;15.13;6.43;;;;;;;;;;4996358;28;20192;-55
2022/06/21 06:33:44;;;;;;;12.77;5.78;;;;;;;;;;5014682;28;20764;-57
2022/06/21 06:36:14;;;;;;;15.93;6.13;;;;;;;;;;5013806;28;20644;-54
2022/06/21 06:38:46;;;;;;;10.75;6.07;;;;;;;;;;5014978;28;20267;-55
2022/06/21 06:41:26;;;;;;;13.85;5.63;;;;;;;;;;5013783;28;20655;-54
2022/06/21 06:43:57;;;;;;;13.07;5.55;;;;;;;;;;5014680;28;20168;-54
2022/06/21 06:46:35;;;;;;;20.90;5.40;;;;;;;;;;5014412;28;20273;-54
2022/06/21 06:49:15;;;;;;;13.15;5.03;;;;;;;;;;4996167;28;20188;-52
2022/06/21 06:51:51;;;;;;;9.65;4.93;;;;;;;;;;4996718;28;20204;-55
2022/06/21 06:54:25;;;;;;;14.95;5.32;;;;;;;;;;5014527;28;20620;-57
2022/06/21 06:57:00;;;;;;;17.02;5.50;;;;;;;;;;5014448;28;20168;-55
2022/06/21 06:59:26;;;;;;;17.17;6.68;;;;;;;;;;5012457;28;20192;-56
2022/06/21 07:02:02;;;;;;;15.38;6.68;;;;;;;;;;4993901;28;20196;-55
2022/06/21 07:04:31;;;;;;;15.90;5.90;;;;;;;;;;4977555;28;20177;-56
2022/06/21 07:07:01;;;;;;;19.73;6.80;;;;;;;;;;4993907;28;20614;-60
2022/06/21 07:09:30;;;;;;;17.08;6.10;;;;;;;;;;5011232;28;20199;-56
2022/06/21 07:12:13;;;;;;;15.50;5.10;;;;;;;;;;5013553;28;20688;-54
2022/06/21 07:14:39;;;;;;;11.60;5.07;;;;;;;;;;5014444;28;20188;-56
2022/06/21 07:17:06;;;;;;;12.70;5.50;;;;;;;;;;5014093;28;20184;-57
2022/06/21 07:19:32;;;;;;;18.52;5.70;;;;;;;;;;4996467;28;20523;-54
2022/06/21 07:21:59;;;;;;;12.15;4.93;;;;;;;;;;5013883;28;20637;-55
2022/06/21 07:24:25;;;;;;;15.77;5.97;;;;;;;;;;5012052;28;20193;-61
2022/06/21 07:26:53;;;;;;;14.70;5.35;;;;;;;;;;4996129;28;20192;-56
2022/06/21 07:29:39;;;;;;;16.10;5.13;;;;;;;;;;4996032;28;20679;-55
2022/06/21 07:32:09;;;;;;;17.58;5.20;;;;;;;;;;5013821;28;20201;-58
2022/06/21 07:34:42;;;;;;;15.77;5.45;;;;;;;;;;5015538;28;20180;-57
2022/06/21 07:37:21;;;;;;;12.85;4.75;;;;;;;;;;5012170;28;20192;-54
2022/06/21 07:39:57;;;;;;;12.00;4.50;;;;;;;;;;4995978;28;20200;-56
2022/06/21 07:42:29;;;;;;;15.68;4.63;;;;;;;;;;5012230;28;20572;-55
2022/06/21 07:44:55;;;;;;;13.73;4.82;;;;;;;;;;4993904;28;20648;-52
2022/06/21 07:47:24;;;;;;;12.80;4.85;;;;;;;;;;4960660;28;20181;-54
2022/06/21 07:49:52;;;;;;;7.90;4.30;;;;;;;;;;4993729;28;20652;-53
2022/06/21 07:52:18;;;;;;;12.73;4.55;;;;;;;;;;4993513;28;20241;-54
2022/06/21 07:54:56;;;;;;;15.15;4.18;;;;;;;;;;5009010;28;20307;-59
2022/06/21 07:57:25;;;;;;;13.15;4.13;;;;;;;;;;5013055;28;20632;-59
2022/06/21 07:59:54;;;;;;;10.93;3.97;;;;;;;;;;4995540;28;20304;-51
2022/06/21 08:08:07;;;;;;;17.13;4.22;;;;;;;;;;5032750;28;20188;-51
2022/06/21 08:10:42;;;;;;;20.45;5.30;;;;;;;;;;5010698;28;20185;-54
2022/06/21 08:13:10;;;;;;;7.60;3.90;;;;;;;;;;5012154;28;20208;-52
2022/06/21 08:15:40;;;;;;;12.60;4.25;;;;;;;;;;5013230;28;20592;-52
2022/06/21 08:18:17;;;;;;;12.02;3.97;;;;;;;;;;5011514;28;20189;-55
2022/06/21 08:20:48;;;;;;;14.35;4.63;;;;;;;;;;5012066;28;20168;-50
2022/06/21 08:23:20;;;;;;;11.15;4.10;;;;;;;;;;5012150;28;20180;-53
2022/06/21 08:25:54;;;;;;;10.38;3.85;;;;;;;;;;5011973;28;20189;-55
2022/06/21 08:28:25;;;;;;;16.00;4.80;;;;;;;;;;5012815;28;20259;-55
2022/06/21 08:30:56;;;;;;;12.15;4.80;;;;;;;;;;5012750;28;20267;-55
2022/06/21 08:33:43;;;;;;;7.13;4.20;;;;;;;;;;5011021;28;20216;-54
2022/06/21 08:36:16;;;;;;;11.57;4.18;;;;;;;;;;5012018;28;20203;-55
2022/06/21 08:39:01;;;;;;;8.57;3.83;;;;;;;;;;5013196;28;20180;-55
2022/06/21 08:44:18;;;;;;;9.07;3.75;;;;;;;;;;5023848;28;20203;-55
2022/06/21 08:46:55;;;;;;;8.85;4.00;;;;;;;;;;5032365;28;20179;-59
2022/06/21 08:49:30;;;;;;;11.18;4.05;;;;;;;;;;5032439;28;20164;-55
2022/06/21 08:52:03;;;;;;;7.88;3.05;;;;;;;;;;5017981;28;20290;-57
2022/06/21 08:54:35;;;;;;;8.30;3.10;;;;;;;;;;5013325;28;20415;-56
2022/06/21 08:57:13;;;;;;;7.25;3.38;;;;;;;;;;5012870;28;20215;-55
2022/06/21 09:00:13;;;;;;;8.65;3.38;;;;;;;;;;4997348;28;20575;-56
2022/06/21 09:02:57;;;;;;;15.82;3.83;;;;;;;;;;4956849;28;20343;-54
2022/06/21 09:05:42;;;;;;;9.65;3.47;;;;;;;;;;4998648;28;20218;-56
2022/06/21 09:08:15;;;;;;;6.15;3.30;;;;;;;;;;4998834;28;20185;-53
2022/06/21 09:11:01;;;;;;;7.82;3.42;;;;;;;;;;5015339;28;20193;-54
2022/06/21 09:13:27;;;;;;;8.27;3.08;;;;;;;;;;4976062;28;20259;-56
2022/06/21 09:16:10;;;;;;;5.25;2.65;;;;;;;;;;5015350;28;20196;-55
2022/06/21 09:18:42;;;;;;;10.20;3.17;;;;;;;;;;5016286;28;20157;-55
2022/06/21 09:21:13;;;;;;;9.60;3.50;;;;;;;;;;4981526;28;20189;-56
2022/06/21 09:23:39;;;;;;;8.60;3.10;;;;;;;;;;4982625;28;20234;-56
2022/06/21 09:26:09;;;;;;;9.55;3.20;;;;;;;;;;5015171;28;20176;-52
2022/06/21 09:28:41;;;;;;;7.75;3.03;;;;;;;;;;5015981;28;20176;-55
2022/06/21 09:31:28;;;;;;;6.22;2.47;;;;;;;;;;5014739;28;20247;-55
2022/06/21 09:33:55;;;;;;;6.18;2.47;;;;;;;;;;4997975;28;20215;-55
2022/06/21 09:36:40;;;;;;;6.18;2.88;;;;;;;;;;5014787;28;20176;-50
2022/06/21 09:39:09;;;;;;;6.45;2.53;;;;;;;;;;5014564;28;20196;-56
2022/06/21 09:41:59;;;;;;;6.75;2.20;;;;;;;;;;5014659;28;20259;-56
2022/06/21 09:44:31;;;;;;;8.07;2.65;;;;;;;;;;5005401;28;20195;-55
2022/06/21 09:47:14;;;;;;;8.27;2.60;;;;;;;;;;5016123;28;20173;-61
2022/06/21 09:49:44;;;;;;;7.00;2.03;;;;;;;;;;5015872;28;20223;-57
2022/06/21 09:52:19;;;;;;;5.40;2.30;;;;;;;;;;5014391;28;20221;-60
2022/06/21 09:55:01;;;;;;;4.50;2.40;;;;;;;;;;5013727;28;20187;-55
2022/06/21 09:57:37;;;;;;;6.70;2.30;;;;;;;;;;5016672;28;20178;-56
2022/06/21 10:00:10;;;;;;;7.28;2.70;;;;;;;;;;5015072;28;20216;-54
2022/06/21 10:02:42;;;;;;;8.35;2.30;;;;;;;;;;4998790;28;20194;-57
2022/06/21 10:05:23;;;;;;;11.20;5.25;;;;;;;;;;5015698;28;20271;-56
2022/06/21 10:07:52;;;;;;;6.53;2.83;;;;;;;;;;5020394;28;20179;-57
2022/06/21 10:10:25;;;;;;;5.63;2.80;;;;;;;;;;5033701;28;20169;-60
2022/06/21 10:12:57;;;;;;;4.82;2.78;;;;;;;;;;5026249;28;20300;-58
2022/06/21 10:15:36;;;;;;;5.65;2.60;;;;;;;;;;5013520;28;20226;-59
2022/06/21 10:18:11;;;;;;;7.38;2.53;;;;;;;;;;5014998;28;20600;-54
2022/06/21 10:20:49;;;;;;;5.65;2.45;;;;;;;;;;5015554;28;20207;-59
2022/06/21 10:23:41;;;;;;;5.53;2.97;;;;;;;;;;5013597;28;20196;-59
2022/06/21 10:26:11;;;;;;;9.82;3.78;;;;;;;;;;5009610;28;20193;-55
2022/06/21 10:28:37;;;;;;;13.82;4.53;;;;;;;;;;5014762;28;20172;-56
2022/06/21 10:31:22;;;;;;;13.50;4.60;;;;;;;;;;5014659;28;20227;-61
2022/06/21 10:34:03;;;;;;;11.75;4.80;;;;;;;;;;5013555;28;20212;-55
2022/06/21 10:36:44;;;;;;;13.88;4.68;;;;;;;;;;5014432;28;20173;-55
2022/06/21 10:39:13;;;;;;;12.15;4.45;;;;;;;;;;4997712;28;20192;-55
2022/06/21 10:45:11;;;;;;;13.65;5.07;;;;;;;;;;5016258;28;20215;-59
2022/06/21 10:47:56;;;;;;;12.65;4.55;;;;;;;;;;5017491;28;20195;-56
2022/06/21 10:50:25;;;;;;;12.93;4.88;;;;;;;;;;5014306;28;20199;-60
2022/06/21 10:52:57;;;;;;;19.05;4.90;;;;;;;;;;5013148;28;20247;-57
2022/06/21 10:55:32;;;;;;;12.30;5.35;;;;;;;;;;4993278;28;20208;-58
2022/06/21 10:58:01;;;;;;;18.25;7.47;;;;;;;;;;4997517;28;20197;-59
2022/06/21 11:03:32;;;;;;;12.55;5.30;;;;;;;;;;5022285;28;20175;-60
2022/06/21 11:06:16;;;;;;;12.95;5.38;;;;;;;;;;5029970;28;20270;-57
2022/06/21 11:08:51;;;;;;;15.95;5.13;;;;;;;;;;5032127;28;20643;-57
2022/06/21 11:11:40;;;;;;;11.88;4.93;;;;;;;;;;5016358;28;20291;-56
2022/06/21 11:14:25;;;;;;;15.13;5.68;;;;;;;;;;4996501;28;20549;-55
2022/06/21 11:17:00;;;;;;;10.80;5.00;;;;;;;;;;5016038;28;20275;-56
2022/06/21 11:19:45;;;;;;;14.00;4.90;;;;;;;;;;5033632;28;20183;-57
2022/06/21 11:22:14;;;;;;;15.10;5.55;;;;;;;;;;5020715;28;20644;-55
2022/06/21 11:24:59;;;;;;;8.23;4.57;;;;;;;;;;5018161;28;20230;-61
2022/06/21 11:27:36;;;;;;;14.50;4.85;;;;;;;;;;5013990;28;20609;-56
2022/06/21 11:30:17;;;;;;;11.73;4.63;;;;;;;;;;5013532;28;20196;-55
2022/06/21 11:32:49;;;;;;;13.10;4.47;;;;;;;;;;5012638;28;20235;-54
2022/06/21 11:35:32;;;;;;;16.35;4.13;;;;;;;;;;5014151;28;20165;-57
2022/06/21 11:38:16;;;;;;;15.68;4.47;;;;;;;;;;5012565;28;20184;-58
2022/06/21 11:40:48;;;;;;;13.38;4.50;;;;;;;;;;4979675;28;20208;-56
2022/06/21 11:43:14;;;;;;;16.65;4.47;;;;;;;;;;5011824;28;20188;-57
2022/06/21 11:45:46;;;;;;;13.05;4.50;;;;;;;;;;4995828;28;20173;-57
2022/06/21 11:48:31;;;;;;;16.25;4.70;;;;;;;;;;5013354;28;20176;-55
2022/06/21 11:51:09;;;;;;;18.23;5.15;;;;;;;;;;5013303;28;20176;-56
2022/06/21 11:53:45;;;;;;;14.95;4.38;;;;;;;;;;5012279;28;20262;-57
2022/06/21 11:56:21;;;;;;;12.57;5.25;;;;;;;;;;5013341;28;20229;-56
2022/06/21 11:59:00;;;;;;;14.25;5.30;;;;;;;;;;5013224;28;20183;-55
2022/06/21 12:01:31;;;;;;;10.77;4.75;;;;;;;;;;5013107;28;20648;-56
2022/06/21 12:04:02;;;;;;;15.13;5.47;;;;;;;;;;5012407;28;20177;-54
2022/06/21 12:06:43;;;;;;;13.55;5.90;;;;;;;;;;4993127;28;20173;-57
2022/06/21 12:09:35;;;;;;;13.90;4.90;;;;;;;;;;4993406;28;20177;-56
2022/06/21 12:12:10;;;;;;;12.07;4.93;;;;;;;;;;5000589;28;20204;-58
2022/06/21 12:14:42;;;;;;;16.08;5.22;;;;;;;;;;4997574;28;20275;-57
2022/06/21 12:17:22;;;;;;;12.30;5.40;;;;;;;;;;5011881;28;20625;-57
2022/06/21 12:19:53;;;;;;;14.65;5.32;;;;;;;;;;5013053;28;20211;-58
2022/06/21 12:22:23;;;;;;;10.15;5.38;;;;;;;;;;4994708;28;20189;-58
2022/06/21 12:24:49;;;;;;;13.40;5.10;;;;;;;;;;5012265;28;20176;-57
2022/06/21 12:27:16;;;;;;;10.68;4.97;;;;;;;;;;5013144;28;20632;-53
2022/06/21 12:29:43;;;;;;;15.32;6.38;;;;;;;;;;5013225;28;20188;-56
2022/06/21 12:32:18;;;;;;;15.18;5.65;;;;;;;;;;5011650;28;20204;-57
2022/06/21 12:34:51;;;;;;;14.52;5.50;;;;;;;;;;5015238;28;20183;-56
2022/06/21 12:37:23;;;;;;;14.57;5.25;;;;;;;;;;5016586;28;20677;-54
2022/06/21 12:39:51;;;;;;;14.70;5.55;;;;;;;;;;4999457;28;20179;-54
2022/06/21 12:42:27;;;;;;;15.93;5.55;;;;;;;;;;5016975;28;20259;-53
2022/06/21 12:45:11;;;;;;;15.38;7.28;;;;;;;;;;5015600;28;20184;-58
2022/06/21 12:47:37;;;;;;;14.82;5.55;;;;;;;;;;5016540;28;20156;-56
2022/06/21 12:50:22;;;;;;;15.73;5.88;;;;;;;;;;4998820;28;20188;-54
2022/06/21 12:52:56;;;;;;;12.02;5.97;;;;;;;;;;4995498;28;20225;-56
2022/06/21 12:55:38;;;;;;;13.75;6.22;;;;;;;;;;4996411;28;20211;-53
2022/06/21 12:58:10;;;;;;;13.15;6.10;;;;;;;;;;4995630;28;20810;-54
2022/06/21 13:00:36;;;;;;;13.48;6.18;;;;;;;;;;4994052;28;20223;-55
2022/06/21 13:03:05;;;;;;;14.05;6.30;;;;;;;;;;4997277;28;20181;-56
2022/06/21 13:05:43;;;;;;;13.77;6.10;;;;;;;;;;4994672;28;20185;-60
2022/06/21 13:08:35;;;;;;;11.63;6.10;;;;;;;;;;4995487;28;20221;-55
2022/06/21 13:11:01;;;;;;;19.88;6.97;;;;;;;;;;4994785;28;20220;-55
2022/06/21 13:13:46;;;;;;;12.27;5.72;;;;;;;;;;4997449;28;20196;-56
2022/06/21 13:16:12;;;;;;;16.20;5.97;;;;;;;;;;4999488;28;20266;-55
2022/06/21 13:18:54;;;;;;;14.95;5.57;;;;;;;;;;5016067;28;20176;-54
2022/06/21 13:21:20;;;;;;;12.35;5.55;;;;;;;;;;5014996;28;20172;-57
2022/06/21 13:23:46;;;;;;;13.52;5.57;;;;;;;;;;5001949;28;20185;-54
2022/06/21 13:26:13;;;;;;;13.73;7.35;;;;;;;;;;4993767;28;20228;-54
2022/06/21 13:28:45;;;;;;;13.48;6.63;;;;;;;;;;4996871;28;20228;-52
2022/06/21 13:31:11;;;;;;;13.90;5.93;;;;;;;;;;4996504;28;20173;-57
2022/06/21 13:33:37;;;;;;;13.68;6.57;;;;;;;;;;5015358;28;20236;-55
2022/06/21 13:36:24;;;;;;;14.15;5.90;;;;;;;;;;5008503;28;20567;-53
2022/06/21 13:38:58;;;;;;;17.02;5.72;;;;;;;;;;4995261;28;20184;-55
2022/06/21 13:44:21;;;;;;;15.32;7.15;;;;;;;;;;4996467;28;20177;-60
2022/06/21 13:46:49;;;;;;;14.77;6.47;;;;;;;;;;4994711;28;20235;-55
2022/06/21 13:49:21;;;;;;;15.43;5.95;;;;;;;;;;4995817;28;20201;-56
2022/06/21 13:51:55;;;;;;;20.23;5.72;;;;;;;;;;4994559;28;20165;-56
2022/06/21 13:54:35;;;;;;;18.77;6.03;;;;;;;;;;5003871;28;20746;-55
2022/06/21 13:57:10;;;;;;;15.05;5.90;;;;;;;;;;5006005;28;20264;-53
2022/06/21 13:59:43;;;;;;;13.45;6.57;;;;;;;;;;4995756;28;20188;-54
2022/06/21 14:02:30;;;;;;;12.00;6.35;;;;;;;;;;4996235;28;20224;-55
2022/06/21 14:05:02;;;;;;;13.63;6.35;;;;;;;;;;4975601;28;20178;-55
2022/06/21 14:07:47;;;;;;;17.55;6.85;;;;;;;;;;4982418;28;20293;-53
2022/06/21 14:10:32;;;;;;;14.48;6.75;;;;;;;;;;4995649;28;20200;-52
2022/06/21 14:13:06;;;;;;;16.05;6.45;;;;;;;;;;4985162;28;20592;-55
2022/06/21 14:15:54;;;;;;;17.70;7.28;;;;;;;;;;4995003;28;20223;-56
2022/06/21 14:18:24;;;;;;;14.85;6.80;;;;;;;;;;4994222;28;20186;-52
2022/06/21 14:21:07;;;;;;;13.35;7.25;;;;;;;;;;4995167;28;20181;-57
2022/06/21 14:23:40;;;;;;;18.30;6.95;;;;;;;;;;4994459;28;20185;-56
2022/06/21 14:26:18;;;;;;;14.00;6.22;;;;;;;;;;4995034;28;20170;-57
2022/06/21 14:28:44;;;;;;;16.23;6.70;;;;;;;;;;4994702;28;20196;-60
2022/06/21 14:31:18;;;;;;;18.48;8.02;;;;;;;;;;4995087;28;20185;-55
2022/06/21 14:33:54;;;;;;;16.60;6.30;;;;;;;;;;4995233;28;20220;-58
2022/06/21 14:36:33;;;;;;;13.57;4.57;;;;;;;;;;5013296;28;20689;-59
2022/06/21 14:39:18;;;;;;;11.32;4.68;;;;;;;;;;4991578;28;20708;-56
2022/06/21 14:41:52;;;;;;;16.33;4.57;;;;;;;;;;4973707;28;20186;-58
2022/06/21 14:44:22;;;;;;;11.95;4.60;;;;;;;;;;4990964;28;20619;-56
2022/06/21 14:46:48;;;;;;;21.50;4.75;;;;;;;;;;4991147;28;20182;-57
2022/06/21 14:49:20;;;;;;;20.52;4.90;;;;;;;;;;4993077;28;20669;-58
2022/06/21 14:51:47;;;;;;;12.60;4.70;;;;;;;;;;4999841;28;20191;-58
2022/06/21 14:54:32;;;;;;;12.85;4.68;;;;;;;;;;5030308;28;20220;-56
2022/06/21 14:57:04;;;;;;;14.38;5.10;;;;;;;;;;5023867;28;20176;-58
2022/06/21 14:59:55;;;;;;;13.60;4.70;;;;;;;;;;4980950;28;20508;-59
2022/06/21 15:02:40;;;;;;;15.65;4.22;;;;;;;;;;5013431;28;20208;-56
2022/06/21 15:05:24;;;;;;;11.82;4.03;;;;;;;;;;5013938;28;20235;-58
2022/06/21 15:07:50;;;;;;;11.25;4.07;;;;;;;;;;5012295;28;20176;-57
2022/06/21 15:10:24;;;;;;;11.75;4.47;;;;;;;;;;5013723;28;20173;-58
2022/06/21 15:12:55;;;;;;;14.27;4.93;;;;;;;;;;5013833;28;20201;-56
2022/06/21 15:15:23;;;;;;;11.80;4.25;;;;;;;;;;5012741;28;20169;-56
2022/06/21 15:17:52;;;;;;;9.85;4.18;;;;;;;;;;5024090;28;20187;-56
2022/06/21 15:20:25;;;;;;;12.65;4.63;;;;;;;;;;5033685;28;20218;-57
2022/06/21 15:23:00;;;;;;;10.90;4.80;;;;;;;;;;5018851;28;20239;-57
2022/06/21 15:25:42;;;;;;;17.25;5.07;;;;;;;;;;5013217;28;20176;-57